Terminal Aerodrome Forecast
Issued by NWS Bismarck, ND

Home | Current Version | Previous Version | Graphics & Text | Print | Product List | Glossary On
Versions: 1 2 3 4 5 6 7 8 9 10 11 12 13 14 15 16 17 18 19
000
FTUS43 KBIS 160500
TAFISN
TAF
KISN 160526Z 1606/1706 08020G26KT P6SM SCT035 OVC060
     FM160800 07017G23KT P6SM VCSH SCT015 OVC025
     FM161000 07015G22KT 5SM BR VCSH OVC015
     FM161900 08014KT P6SM BKN035 OVC070
     FM170300 09010KT 5SM BR OVC020
      AMD NOT SKED=

USA.gov is the U.S. government's official web portal to all federal, state and local government web resources and services.